AirNav   Free Bose SoundSport
 
 1189 users online  

07Y Hill City-Quadna Mountain Airport
Hill City, Minnesota, USA

GOING TO HILL CITY?


FAA INFORMATION EFFECTIVE 28 MARCH 2019

Location

FAA Identifier: 07Y
Lat/Long: 46-57-21.2220N / 093-35-50.7940W
46-57.353700N / 093-35.846567W
46.9558950 / -93.5974428
(estimated)
Elevation: 1289 ft. / 393 m (estimated)
Variation: 03E (1985)
From city: 2 miles S of HILL CITY, MN
Time zone: UTC -5 (UTC -6 during Standard Time)
Zip code: 55748

Airport Operations

Airport use: Open to the public
Activation date: 03/1974
Control tower: no
ARTCC: MINNEAPOLIS CENTER
FSS: PRINCETON FLIGHT SERVICE STATION
NOTAMs facility: PNM (NOTAM-D service available)
Attendance: UNATNDD
Wind indicator: yes, WINDSOCK NOT LIT
Segmented circle: no

Airport Communications

CTAF: 122.9
WX AWOS-3PT at GPZ (16 nm N): 118.425 (218-326-8337)

Nearby radio navigation aids

VOR radial/distance  VOR name  Freq  Var
GPZr194/13.2GRAND RAPIDS VOR/DME111.4006E

 
NDB name  Hdg/Dist  Freq  Var  ID
GALEX202/11.527202EGP --. .--.
AITKIN007/24.739700EAIT .- .. -
LONGVILLE092/25.039203EXVG -..- ...- --.
PINE RIVER064/35.133003EPWC .--. .-- -.-.

Airport Services

Parking: tiedowns

Runway Information

Runway 16/34

Dimensions: 2902 x 150 ft. / 885 x 46 m
Surface: turf, in fair condition
Runway edge markings: 16/34 MKD WITH YELLOW CONES.
RUNWAY 16  RUNWAY 34
Latitude: 46-57.579355N46-57.128043N
Longitude: 093-35.960550W093-35.732597W
Elevation: 1279.1 ft.1281.4 ft.
Gradient: 0.2%0.2%
Traffic pattern: rightleft
Markings: , in fair condition, in fair condition
Runway end identifier lights: nono
Obstructions: 57 ft. trees, 1103 ft. from runway, 16 ft. right of centerline, 19:1 slope to clearnone

Airport Ownership and Management from official FAA records

Ownership: Publicly-owned
Owner: CITY OF HILL CITY
125 LAKE AVE, BOX 160
HILL CITY, MN 55748
Phone 218-697-2301
Manager: GEORGE CASPER
125 LAKE AVE, BOX 160
HILL CITY, MN 55748
Phone (218) 244-0440

Airport Operational Statistics

Aircraft based on the field: 3
Single engine airplanes: 3
    
Aircraft operations: avg 83/month *
50% transient general aviation
50% local general aviation
* for 12-month period ending 31 August 2016

Additional Remarks

ARPT CLSD SS-SR.

Instrument Procedures

There are no published instrument procedures at 07Y.

Some nearby airports with instrument procedures:

KGPZ - Grand Rapids/Itasca County Airport-Gordon Newstrom Field (16 nm N)
KHZX - Isedor Iverson Airport (23 nm SE)
KAIT - Aitkin Municipal Airport-Steve Kurtz Field (25 nm S)
KXVG - Longville Municipal Airport (25 nm W)
KPWC - Pine River Regional Airport (35 nm SW)
 
Loc | Ops | Rwys | IFR | FBO | Links
Com | Nav | Svcs | Stats | Notes
Area around 07Y (Hill City-Quadna Mountain Airport)
 
Road maps at: MapQuest Bing Google
 
Aerial photo
WARNING: Photo may not be current or correct
Aerial photo of 07Y (Hill City-Quadna Mountain Airport)
Photo by Ed Wells
Photo taken 10-Oct-2010
looking north.

Do you have a better or more recent aerial photo of Hill City-Quadna Mountain Airport that you would like to share? If so, please send us your photo.

 
Sectional chart

 
Airport distance calculator
Flying to Hill City-Quadna Mountain Airport? Find the distance to fly.

From to 07Y

Sunrise and sunset
Times for 19-Apr-2019
 Local
(UTC-5)
 Zulu
(UTC)
Morning civil twilight05:4810:48
Sunrise06:2011:20
Sunset20:0701:07
Evening civil twilight20:3901:39

Current date and time
Zulu (UTC)  19-Apr-2019 13:31:57
Local (UTC-5)  19-Apr-2019 08:31:57
 
METAR
KGPZ 
16nm N 
191256Z AUTO 00000KT 10SM CLR 02/00 A3003 RMK AO2 SLP182 T00220000 FZRANO
KHZX 
23nm SE 
191315Z AUTO 00000KT 10SM CLR 02/01 A3004 RMK AO2
KXVG 
25nm W 
191317Z AUTO 00000KT 10SM CLR 02/M01 A3002 RMK AO2
KAIT 
26nm S 
191321Z AUTO 22003KT 10SM CLR 04/M02 A3003 RMK AO2
TAF
KBRD 
40nm SW 
191127Z 1912/2012 00000KT P6SM SKC FM191700 26005KT P6SM SKC FM200200 20006KT P6SM FEW250
KHIB 
40nm NE 
191127Z 1912/2012 VRB04KT P6SM SKC FM200200 19005KT P6SM FEW250 FM200700 19006KT P6SM FEW250 WS020/22035KT
NOTAMs
Click for the latest NOTAMs
NOTAMs are issued by the DoD/FAA and will open in a separate window not controlled by AirNav.

 

 
 

Would you like to see your business listed on this page?

 If your business provides an interesting product or service to pilots, flight crews, aircraft, or users of the Hill City-Quadna Mountain Airport, you should consider listing it here.  To start the listing process, click on the button below
 
Add a business
 

Other Pages about Hill City-Quadna Mountain Airport

Update a link
 
Copyright © AirNav, LLC. All rights reserved. Privacy Policy  Contact